Time;durP1;ratioP1;P1;durP2;ratioP2;P2;SDS_P1;SDS_P2;PMS_P1;PMS_P2;Temp;Humidity;BMP_temperature;BMP_pressure;BME280_temperature;BME280_humidity;BME280_pressure;Samples;Min_cycle;Max_cycle;Signal;HPM_P1;HPM_P2
2022/01/03 00:00:10;;;;;;;13.52;1.77;;;8.00;99.90;;;;;;5054578;28;20017;-84
2022/01/03 00:02:35;;;;;;;17.85;1.80;;;7.90;99.90;;;;;;5053389;28;20032;-84
2022/01/03 00:05:01;;;;;;;17.92;2.13;;;7.90;99.90;;;;;;5054477;28;20049;-84
2022/01/03 00:07:27;;;;;;;9.93;2.00;;;7.90;99.90;;;;;;5053350;28;20427;-83
2022/01/03 00:09:52;;;;;;;17.10;2.80;;;7.90;99.90;;;;;;5052830;28;20052;-84
2022/01/03 00:12:19;;;;;;;14.38;1.80;;;7.90;99.90;;;;;;5054382;28;20025;-84
2022/01/03 00:14:45;;;;;;;18.02;2.72;;;7.90;99.90;;;;;;5054192;28;20029;-84
2022/01/03 00:17:11;;;;;;;17.85;2.60;;;8.00;99.90;;;;;;5054269;28;20017;-83
2022/01/03 00:19:36;;;;;;;18.80;2.53;;;8.00;99.90;;;;;;5054239;28;20025;-83
2022/01/03 00:22:06;;;;;;;15.45;2.13;;;8.00;99.90;;;;;;5054113;28;20021;-83
2022/01/03 00:24:33;;;;;;;17.20;2.10;;;7.90;99.90;;;;;;5066298;28;20120;-84
2022/01/03 00:27:20;;;;;;;13.15;1.70;;;7.90;99.90;;;;;;5033213;28;20305;-83
2022/01/03 00:29:50;;;;;;;18.02;2.35;;;7.90;99.90;;;;;;5033374;28;20026;-84
2022/01/03 00:32:15;;;;;;;20.30;2.60;;;7.90;99.90;;;;;;5033806;28;20021;-83
2022/01/03 00:34:41;;;;;;;15.00;1.80;;;7.90;99.90;;;;;;5032800;28;20393;-83
2022/01/03 00:37:08;;;;;;;21.98;2.78;;;8.00;99.90;;;;;;5033935;28;20100;-84
2022/01/03 00:39:34;;;;;;;12.07;1.92;;;8.00;99.90;;;;;;5033955;28;20076;-84
2022/01/03 00:42:00;;;;;;;14.73;1.70;;;8.00;99.90;;;;;;5033991;28;20358;-83
2022/01/03 00:44:26;;;;;;;28.65;3.72;;;8.00;99.90;;;;;;5033956;28;20508;-84
2022/01/03 00:46:53;;;;;;;18.67;3.85;;;8.10;99.90;;;;;;5033455;28;20021;-84
2022/01/03 00:49:19;;;;;;;15.65;2.50;;;8.00;99.90;;;;;;5033080;28;20412;-84
2022/01/03 00:51:45;;;;;;;17.20;2.28;;;8.10;99.90;;;;;;5033860;28;20112;-84
2022/01/03 00:54:11;;;;;;;21.67;2.50;;;8.10;99.90;;;;;;5032503;28;20469;-84
2022/01/03 00:56:43;;;;;;;21.20;1.95;;;8.00;99.90;;;;;;5033640;28;20021;-84
2022/01/03 00:59:10;;;;;;;19.50;2.03;;;8.00;99.90;;;;;;5034092;28;20018;-83
2022/01/03 01:01:47;;;;;;;17.60;2.63;;;8.10;99.90;;;;;;5032798;28;20033;-84
2022/01/03 01:04:13;;;;;;;17.45;1.90;;;8.20;99.90;;;;;;5032302;28;20026;-83
2022/01/03 01:06:39;;;;;;;11.68;1.73;;;8.40;99.90;;;;;;5033611;28;20474;-84
2022/01/03 01:09:07;;;;;;;18.50;2.28;;;8.50;99.90;;;;;;5033523;28;20024;-84
2022/01/03 01:11:33;;;;;;;18.23;2.03;;;8.60;99.90;;;;;;5032165;28;20385;-84
2022/01/03 01:14:00;;;;;;;12.95;2.92;;;8.70;99.90;;;;;;5032171;28;20515;-83
2022/01/03 01:16:27;;;;;;;29.08;3.25;;;8.70;99.90;;;;;;5032077;28;20041;-83
2022/01/03 01:18:53;;;;;;;16.15;1.83;;;8.70;99.90;;;;;;5032148;28;20033;-83
2022/01/03 01:21:20;;;;;;;13.10;2.20;;;8.60;99.90;;;;;;5032144;28;20491;-83
2022/01/03 01:23:48;;;;;;;24.20;2.42;;;8.60;99.90;;;;;;5033460;28;20025;-83
2022/01/03 01:28:58;;;;;;;17.25;2.30;;;8.60;99.90;;;;;;5033638;28;20032;-83
2022/01/03 01:31:26;;;;;;;22.73;2.47;;;8.60;99.90;;;;;;5032033;28;20022;-84
2022/01/03 01:33:54;;;;;;;19.65;3.25;;;8.50;99.90;;;;;;5048753;28;20029;-83
2022/01/03 01:36:25;;;;;;;16.95;1.83;;;8.40;99.90;;;;;;5053103;28;20108;-83
2022/01/03 01:38:53;;;;;;;16.33;2.50;;;8.30;99.90;;;;;;5051943;28;20029;-83
2022/01/03 01:41:20;;;;;;;20.42;2.70;;;8.30;99.90;;;;;;5051834;28;20524;-84
2022/01/03 01:43:47;;;;;;;20.65;3.55;;;8.30;99.90;;;;;;5051899;28;20440;-83
2022/01/03 01:46:21;;;;;;;22.17;3.30;;;8.30;99.90;;;;;;5051725;28;20036;-84
2022/01/03 01:48:48;;;;;;;17.25;2.50;;;8.30;99.90;;;;;;5053373;28;20372;-84
2022/01/03 01:51:19;;;;;;;22.85;3.10;;;8.30;99.90;;;;;;5053067;28;20021;-84
2022/01/03 01:53:48;;;;;;;22.73;4.10;;;8.20;99.90;;;;;;5051790;28;20029;-83
2022/01/03 01:56:23;;;;;;;14.00;2.15;;;8.10;99.90;;;;;;5051386;28;20041;-84
2022/01/03 01:59:18;;;;;;;15.10;2.17;;;8.20;99.90;;;;;;5051788;28;20392;-83
2022/01/03 02:02:04;;;;;;;18.80;3.08;;;8.20;99.90;;;;;;5054162;28;20148;-83
2022/01/03 02:04:29;;;;;;;21.77;3.13;;;8.20;99.90;;;;;;5055600;28;20025;-83
2022/01/03 02:06:57;;;;;;;20.38;3.13;;;8.00;99.90;;;;;;5055557;28;20357;-83
2022/01/03 02:09:42;;;;;;;15.13;2.40;;;8.10;99.90;;;;;;5055514;28;20039;-83
2022/01/03 02:12:16;;;;;;;18.08;2.30;;;8.00;99.90;;;;;;5056706;28;20021;-83
2022/01/03 02:14:43;;;;;;;16.30;2.08;;;8.00;99.90;;;;;;5055419;28;20098;-83
2022/01/03 02:17:09;;;;;;;21.85;3.88;;;8.00;99.90;;;;;;5055415;28;20020;-84
2022/01/03 02:19:36;;;;;;;14.80;2.33;;;8.00;99.90;;;;;;5055275;28;20051;-83
2022/01/03 02:22:03;;;;;;;26.25;4.05;;;8.10;99.90;;;;;;5055343;28;20025;-83
2022/01/03 02:24:29;;;;;;;18.67;2.47;;;8.00;99.90;;;;;;5055276;28;20120;-82
2022/01/03 02:26:55;;;;;;;18.40;2.63;;;8.00;99.90;;;;;;5055173;28;20116;-83
2022/01/03 02:29:21;;;;;;;22.08;2.95;;;8.10;99.90;;;;;;5055117;28;20052;-83
2022/01/03 02:31:52;;;;;;;15.15;2.20;;;8.10;99.90;;;;;;5056230;28;20472;-83
2022/01/03 02:34:17;;;;;;;15.10;2.40;;;8.00;99.90;;;;;;5056304;28;20036;-83
2022/01/03 02:36:44;;;;;;;25.67;3.33;;;8.10;99.90;;;;;;5054824;28;20037;-83
2022/01/03 02:39:10;;;;;;;20.13;2.85;;;8.00;99.90;;;;;;5054994;28;20086;-83
2022/01/03 02:41:36;;;;;;;18.33;2.75;;;7.90;99.90;;;;;;5054913;28;20025;-84
2022/01/03 02:44:02;;;;;;;21.67;3.30;;;8.00;99.90;;;;;;5054845;28;20120;-84
2022/01/03 02:46:27;;;;;;;19.10;3.08;;;8.00;99.90;;;;;;5054893;28;20111;-83
2022/01/03 02:48:53;;;;;;;21.27;3.25;;;8.00;99.90;;;;;;5054799;28;20029;-83
2022/01/03 02:51:19;;;;;;;20.35;3.10;;;8.00;99.90;;;;;;5056042;28;20018;-83
2022/01/03 02:53:44;;;;;;;18.63;2.30;;;8.00;99.90;;;;;;5055867;28;20102;-83
2022/01/03 02:56:10;;;;;;;22.42;3.08;;;8.00;99.90;;;;;;5056048;28;20029;-83
2022/01/03 02:58:36;;;;;;;27.63;2.70;;;8.00;99.90;;;;;;5054617;28;20112;-82
2022/01/03 03:01:03;;;;;;;20.00;3.42;;;8.10;99.90;;;;;;5055872;28;20380;-83
2022/01/03 03:03:28;;;;;;;22.45;3.95;;;8.10;99.90;;;;;;5055750;28;20047;-83
2022/01/03 03:05:54;;;;;;;19.85;2.85;;;8.10;99.90;;;;;;5054689;28;20060;-83
2022/01/03 03:08:19;;;;;;;21.00;3.17;;;8.10;99.90;;;;;;5054433;28;20055;-83
2022/01/03 03:10:45;;;;;;;24.67;3.47;;;8.00;99.90;;;;;;5054284;28;20496;-84
2022/01/03 03:13:11;;;;;;;22.85;2.80;;;8.00;99.90;;;;;;5053669;28;20108;-83
2022/01/03 03:15:37;;;;;;;17.95;3.92;;;8.10;99.90;;;;;;5055247;28;20175;-83
2022/01/03 03:18:03;;;;;;;22.75;2.83;;;8.00;99.90;;;;;;5054215;28;20021;-83
2022/01/03 03:20:31;;;;;;;18.70;3.13;;;8.00;99.90;;;;;;5055428;28;20103;-83
2022/01/03 03:22:59;;;;;;;20.35;2.58;;;8.00;99.90;;;;;;5055309;28;20021;-83
2022/01/03 03:25:27;;;;;;;29.02;3.78;;;8.00;99.90;;;;;;5054058;28;20123;-83
2022/01/03 03:28:03;;;;;;;22.80;2.78;;;8.00;99.90;;;;;;5054055;28;20021;-83
2022/01/03 03:30:28;;;;;;;21.67;3.20;;;8.10;99.90;;;;;;5054030;28;20039;-83
2022/01/03 03:32:59;;;;;;;20.08;3.50;;;8.20;99.90;;;;;;5055206;28;20104;-83
2022/01/03 03:35:24;;;;;;;21.80;3.15;;;8.20;99.90;;;;;;5055114;28;20126;-83
2022/01/03 03:37:50;;;;;;;22.40;2.58;;;8.10;99.90;;;;;;5053889;28;20456;-83
2022/01/03 03:40:16;;;;;;;18.55;2.78;;;8.10;99.90;;;;;;5053936;28;20017;-83
2022/01/03 03:42:43;;;;;;;25.95;2.95;;;8.10;99.90;;;;;;5054207;28;20025;-83
2022/01/03 03:45:09;;;;;;;21.00;3.13;;;8.00;99.90;;;;;;5054955;28;20056;-83
2022/01/03 03:47:35;;;;;;;20.65;2.50;;;8.00;99.90;;;;;;5053503;28;20033;-83
2022/01/03 03:50:01;;;;;;;20.40;2.60;;;8.00;99.90;;;;;;5054864;28;20074;-83
2022/01/03 03:52:27;;;;;;;23.67;3.83;;;7.90;99.90;;;;;;5053530;28;20044;-83
2022/01/03 03:54:54;;;;;;;20.77;2.70;;;7.90;99.90;;;;;;5054632;28;20469;-83
2022/01/03 03:57:19;;;;;;;19.60;3.35;;;7.90;99.90;;;;;;5054742;28;20551;-83
2022/01/03 03:59:45;;;;;;;27.23;3.30;;;7.80;99.90;;;;;;5053433;28;20066;-83
2022/01/03 04:02:10;;;;;;;18.98;2.85;;;7.80;99.90;;;;;;5054963;28;20021;-83
2022/01/03 04:04:36;;;;;;;19.52;2.65;;;7.80;99.90;;;;;;5053179;28;20083;-83
2022/01/03 04:07:02;;;;;;;20.65;2.80;;;7.80;99.90;;;;;;5053393;28;20021;-83
2022/01/03 04:09:28;;;;;;;24.88;3.30;;;7.80;99.90;;;;;;5053117;28;20032;-83
2022/01/03 04:11:54;;;;;;;23.23;2.88;;;7.80;99.90;;;;;;5053091;28;20032;-83
2022/01/03 04:14:19;;;;;;;27.90;2.67;;;7.80;99.90;;;;;;5053024;28;20028;-83
2022/01/03 04:16:45;;;;;;;24.70;3.85;;;7.80;99.90;;;;;;5052996;28;20396;-83
2022/01/03 04:19:11;;;;;;;24.88;4.07;;;7.80;99.90;;;;;;5054293;28;20028;-83
2022/01/03 04:21:39;;;;;;;26.63;4.03;;;7.80;99.90;;;;;;5052956;28;20021;-83
2022/01/03 04:24:07;;;;;;;24.25;3.03;;;7.80;99.90;;;;;;5053065;28;20025;-83
2022/01/03 04:26:32;;;;;;;23.08;2.70;;;7.70;99.90;;;;;;5052948;28;20021;-83
2022/01/03 04:28:58;;;;;;;16.30;2.08;;;7.70;99.90;;;;;;5054132;28;20499;-82
2022/01/03 04:31:24;;;;;;;18.80;2.75;;;7.70;99.90;;;;;;5052855;28;20017;-83
2022/01/03 04:33:49;;;;;;;27.63;4.25;;;7.80;99.90;;;;;;5052743;28;20021;-83
2022/01/03 04:36:15;;;;;;;19.50;2.90;;;7.80;99.90;;;;;;5052616;28;20549;-83
2022/01/03 04:38:40;;;;;;;25.33;3.40;;;7.90;99.90;;;;;;5052706;28;20025;-83
2022/01/03 04:44:28;;;;;;;29.08;2.88;;;7.80;99.90;;;;;;5033765;28;20056;-83
2022/01/03 04:46:55;;;;;;;20.30;3.03;;;7.70;99.90;;;;;;5032649;28;20469;-83
2022/01/03 04:49:20;;;;;;;28.13;3.47;;;7.70;99.90;;;;;;5032543;28;20017;-84
2022/01/03 04:51:46;;;;;;;25.48;3.33;;;7.70;99.90;;;;;;5032526;28;20532;-83
2022/01/03 04:54:11;;;;;;;30.48;3.97;;;7.70;99.90;;;;;;5032539;28;20025;-83
2022/01/03 04:56:37;;;;;;;30.73;3.67;;;7.90;99.90;;;;;;5032328;28;20041;-83
2022/01/03 04:59:03;;;;;;;29.38;3.60;;;7.80;99.90;;;;;;5032493;28;20038;-83
2022/01/03 05:01:29;;;;;;;11.35;2.20;;;7.70;99.90;;;;;;5033552;28;20026;-83
2022/01/03 05:03:54;;;;;;;26.58;3.83;;;7.80;99.90;;;;;;5032407;28;20119;-83
2022/01/03 05:06:20;;;;;;;21.38;3.15;;;7.80;99.90;;;;;;5032700;28;20092;-83
2022/01/03 05:08:46;;;;;;;24.45;3.03;;;7.80;99.90;;;;;;5033497;28;20024;-83
2022/01/03 05:11:13;;;;;;;22.58;2.63;;;7.70;99.90;;;;;;5033536;28;20393;-83
2022/01/03 05:13:39;;;;;;;23.92;4.07;;;7.70;99.90;;;;;;5033534;28;20032;-83
2022/01/03 05:16:05;;;;;;;35.25;3.28;;;7.80;99.90;;;;;;5043910;28;20032;-83
2022/01/03 05:18:30;;;;;;;27.90;3.58;;;7.60;99.90;;;;;;5052053;28;20112;-83
2022/01/03 05:20:56;;;;;;;20.33;3.13;;;7.70;99.90;;;;;;5052007;28;20051;-83
2022/01/03 05:23:22;;;;;;;25.23;3.65;;;7.80;99.90;;;;;;5051991;28;20017;-83
2022/01/03 05:25:48;;;;;;;16.30;2.03;;;7.80;99.90;;;;;;5053144;28;20787;-83
2022/01/03 05:28:14;;;;;;;16.05;2.63;;;8.00;99.90;;;;;;5051935;28;20024;-83
2022/01/03 05:30:40;;;;;;;22.60;3.47;;;8.10;99.90;;;;;;5052114;28;20023;-83
2022/01/03 05:33:06;;;;;;;22.73;3.63;;;8.10;99.90;;;;;;5051969;28;20025;-83
2022/01/03 05:35:31;;;;;;;25.33;3.85;;;8.10;99.90;;;;;;5053165;28;20112;-83
2022/01/03 05:37:57;;;;;;;24.15;3.45;;;8.10;99.90;;;;;;5056063;28;20025;-83
2022/01/03 05:40:25;;;;;;;22.33;3.47;;;8.10;99.90;;;;;;5056037;28;20070;-83
2022/01/03 05:42:52;;;;;;;31.70;3.85;;;8.00;99.90;;;;;;5055906;28;20021;-83
2022/01/03 05:45:18;;;;;;;25.90;4.22;;;8.00;99.90;;;;;;5056101;28;20405;-83
2022/01/03 05:47:46;;;;;;;26.02;4.57;;;8.00;99.90;;;;;;5055980;28;20048;-83
2022/01/03 05:50:13;;;;;;;26.02;3.35;;;7.90;99.90;;;;;;5057354;28;20024;-83
2022/01/03 05:52:39;;;;;;;22.17;2.97;;;7.90;99.90;;;;;;5055945;28;20029;-83
2022/01/03 05:55:06;;;;;;;26.63;3.42;;;7.90;99.90;;;;;;5055657;28;20120;-83
2022/01/03 05:57:32;;;;;;;25.35;3.42;;;7.90;99.90;;;;;;5056967;28;20370;-83
2022/01/03 05:59:59;;;;;;;27.95;3.17;;;7.90;99.90;;;;;;5055555;28;20021;-83
2022/01/03 06:02:26;;;;;;;21.30;3.03;;;7.90;99.90;;;;;;5055738;28;20036;-83
2022/01/03 06:07:17;;;;;;;22.70;3.25;;;7.90;99.90;;;;;;5057140;28;20021;-83
2022/01/03 06:09:43;;;;;;;25.50;3.67;;;7.80;99.90;;;;;;5055816;28;20065;-83
2022/01/03 06:12:09;;;;;;;26.40;2.92;;;7.90;99.90;;;;;;5055300;28;20052;-83
2022/01/03 06:14:35;;;;;;;23.00;2.95;;;8.00;99.90;;;;;;5055375;28;20025;-83
2022/01/03 06:17:01;;;;;;;25.90;3.42;;;7.90;99.90;;;;;;5055297;28;20033;-83
2022/01/03 06:19:27;;;;;;;27.85;3.80;;;7.80;99.90;;;;;;5055393;28;20120;-83
2022/01/03 06:21:53;;;;;;;23.45;3.85;;;7.70;99.90;;;;;;5055526;28;20029;-83
2022/01/03 06:24:19;;;;;;;27.98;3.20;;;7.70;99.90;;;;;;5055295;28;20028;-83
2022/01/03 06:26:48;;;;;;;28.58;3.75;;;7.60;99.90;;;;;;5055100;28;20516;-83
2022/01/03 06:29:15;;;;;;;22.85;3.13;;;7.60;99.90;;;;;;5055250;28;20476;-83
2022/01/03 06:31:41;;;;;;;19.30;3.17;;;7.60;99.90;;;;;;5055147;28;20593;-83
2022/01/03 06:34:07;;;;;;;27.60;2.95;;;7.60;99.90;;;;;;5055079;28;20028;-83
2022/01/03 06:36:33;;;;;;;23.48;3.58;;;7.60;99.90;;;;;;5054927;28;20033;-83
2022/01/03 06:38:59;;;;;;;26.77;3.38;;;7.60;99.90;;;;;;5055392;28;20029;-83
2022/01/03 06:41:26;;;;;;;28.35;3.40;;;7.60;99.90;;;;;;5054960;28;20021;-83
2022/01/03 06:43:52;;;;;;;27.60;3.72;;;7.60;99.90;;;;;;5054884;28;20017;-83
2022/01/03 06:46:17;;;;;;;32.53;4.18;;;7.60;99.90;;;;;;5054047;28;20036;-83
2022/01/03 06:48:43;;;;;;;28.17;3.10;;;7.60;99.90;;;;;;5054228;28;20433;-83
2022/01/03 06:51:09;;;;;;;19.25;2.83;;;7.60;99.90;;;;;;5054853;28;20032;-83
2022/01/03 06:53:35;;;;;;;28.13;4.07;;;7.60;99.90;;;;;;5054740;28;20021;-83
2022/01/03 06:56:01;;;;;;;31.42;3.35;;;7.70;99.90;;;;;;5055825;28;20476;-83
2022/01/03 06:58:27;;;;;;;25.73;3.00;;;7.90;99.90;;;;;;5055823;28;20051;-83
2022/01/03 07:00:52;;;;;;;30.33;3.00;;;7.80;99.90;;;;;;5054492;28;20495;-83
2022/01/03 07:03:18;;;;;;;32.20;3.97;;;7.70;99.90;;;;;;5054470;28;20027;-83
2022/01/03 07:05:43;;;;;;;23.52;3.00;;;7.60;99.90;;;;;;5054276;28;20409;-83
2022/01/03 07:08:09;;;;;;;23.95;2.85;;;7.50;99.90;;;;;;5054303;28;20040;-83
2022/01/03 07:10:34;;;;;;;31.25;2.83;;;7.50;99.90;;;;;;5054472;28;20033;-83
2022/01/03 07:13:01;;;;;;;26.70;2.80;;;7.50;99.90;;;;;;5055573;28;20029;-83
2022/01/03 07:20:55;;;;;;;27.92;2.70;;;7.60;99.90;;;;;;5049529;28;20048;-83
2022/01/03 07:23:22;;;;;;;23.05;3.38;;;7.40;99.90;;;;;;5051721;28;20033;-83
2022/01/03 07:25:47;;;;;;;26.58;2.42;;;7.50;99.90;;;;;;5042362;28;20025;-84
2022/01/03 07:28:14;;;;;;;26.23;2.75;;;7.50;99.90;;;;;;5053058;28;20025;-83
2022/01/03 07:30:40;;;;;;;23.25;4.28;;;7.60;99.90;;;;;;5055226;28;20021;-83
2022/01/03 07:33:06;;;;;;;30.08;3.30;;;7.40;99.90;;;;;;5051005;28;20458;-83
2022/01/03 07:35:31;;;;;;;25.70;3.45;;;7.50;99.90;;;;;;5050440;28;20037;-83
2022/01/03 07:37:58;;;;;;;29.33;3.75;;;7.40;99.90;;;;;;5036278;28;20417;-83
2022/01/03 07:40:25;;;;;;;26.88;3.67;;;7.50;99.90;;;;;;5040539;28;20317;-83
2022/01/03 07:42:51;;;;;;;26.45;3.22;;;7.50;99.90;;;;;;5041514;28;20464;-84
2022/01/03 07:45:16;;;;;;;29.45;4.38;;;7.60;99.90;;;;;;5034256;28;20030;-84
2022/01/03 07:47:42;;;;;;;25.73;2.67;;;7.60;99.90;;;;;;5040657;28;20374;-84
2022/01/03 07:50:10;;;;;;;29.40;3.75;;;7.60;99.90;;;;;;5050706;28;20036;-84
2022/01/03 07:52:37;;;;;;;24.55;2.78;;;7.60;99.90;;;;;;5050202;28;20404;-83
2022/01/03 07:55:05;;;;;;;19.65;3.38;;;7.60;99.90;;;;;;5051745;28;20032;-84
2022/01/03 07:57:30;;;;;;;25.27;4.10;;;7.60;99.90;;;;;;5051937;28;20361;-83
2022/01/03 07:59:56;;;;;;;26.58;3.15;;;7.60;99.90;;;;;;5052236;28;20036;-83
2022/01/03 08:02:22;;;;;;;33.60;3.92;;;7.70;99.90;;;;;;5051829;28;20033;-83
2022/01/03 08:04:47;;;;;;;20.88;2.88;;;7.70;99.90;;;;;;5048117;28;20068;-83
2022/01/03 08:07:13;;;;;;;30.17;3.45;;;7.70;99.90;;;;;;5034805;28;20028;-83
2022/01/03 08:09:38;;;;;;;21.33;3.70;;;7.70;99.90;;;;;;5049838;28;20022;-82
2022/01/03 08:12:05;;;;;;;28.67;2.95;;;7.70;99.90;;;;;;5034635;28;20028;-82
2022/01/03 08:14:31;;;;;;;24.73;5.18;;;7.80;99.90;;;;;;5050447;28;20151;-83
2022/01/03 08:16:57;;;;;;;19.52;2.38;;;7.80;99.90;;;;;;5049878;28;20492;-81
2022/01/03 08:19:23;;;;;;;27.13;3.38;;;8.00;99.90;;;;;;5051614;28;20100;-81
2022/01/03 08:21:48;;;;;;;28.35;3.58;;;7.90;99.90;;;;;;5051421;28;20481;-83
2022/01/03 08:24:14;;;;;;;20.05;2.85;;;8.10;99.90;;;;;;5051102;28;20291;-83
2022/01/03 08:26:40;;;;;;;22.95;4.20;;;8.00;99.90;;;;;;5051247;28;20104;-81
2022/01/03 08:29:05;;;;;;;22.65;3.15;;;8.10;99.90;;;;;;5051498;28;20028;-81
2022/01/03 08:31:31;;;;;;;25.65;3.25;;;8.20;99.90;;;;;;5048308;28;20022;-81
2022/01/03 08:33:57;;;;;;;27.83;4.00;;;8.20;99.90;;;;;;5037133;28;20029;-81
2022/01/03 08:36:22;;;;;;;26.80;4.35;;;8.20;99.90;;;;;;5039091;28;20029;-82
2022/01/03 08:38:48;;;;;;;31.73;3.92;;;8.30;99.90;;;;;;5039346;28;20028;-81
2022/01/03 08:41:14;;;;;;;28.48;3.80;;;8.30;99.90;;;;;;5048968;28;20021;-81
2022/01/03 08:43:39;;;;;;;22.80;2.80;;;8.30;99.90;;;;;;5050925;28;20032;-81
2022/01/03 08:46:05;;;;;;;25.83;3.55;;;8.30;99.90;;;;;;5051032;28;20431;-81
2022/01/03 08:48:31;;;;;;;22.80;3.20;;;8.40;99.90;;;;;;5050967;28;20221;-82
2022/01/03 08:50:57;;;;;;;28.33;4.13;;;8.40;99.90;;;;;;5049588;28;20021;-81
2022/01/03 08:53:26;;;;;;;23.80;3.20;;;8.50;99.90;;;;;;5038584;28;20022;-81
2022/01/03 08:55:56;;;;;;;22.55;3.67;;;8.50;99.90;;;;;;5038687;28;20035;-81
2022/01/03 08:58:22;;;;;;;25.88;5.30;;;8.50;99.90;;;;;;5035696;28;20033;-81
2022/01/03 09:00:48;;;;;;;25.58;4.00;;;8.60;99.90;;;;;;5042026;28;20411;-81
2022/01/03 09:03:13;;;;;;;20.00;2.63;;;8.60;99.90;;;;;;5037846;28;20488;-81
2022/01/03 09:05:39;;;;;;;26.90;3.40;;;8.70;99.90;;;;;;5044158;28;20060;-81
2022/01/03 09:08:04;;;;;;;21.88;3.88;;;8.80;99.90;;;;;;5045212;28;20013;-81
2022/01/03 09:10:30;;;;;;;25.80;3.42;;;8.80;99.90;;;;;;5044892;28;20075;-81
2022/01/03 09:12:57;;;;;;;26.60;3.15;;;8.90;99.90;;;;;;5035120;28;20577;-81
2022/01/03 09:15:23;;;;;;;23.70;2.92;;;8.90;99.90;;;;;;5032240;28;20116;-81
2022/01/03 09:17:49;;;;;;;21.60;2.80;;;9.00;99.90;;;;;;5032755;28;20109;-81
2022/01/03 09:20:15;;;;;;;25.45;3.72;;;9.20;99.90;;;;;;5044292;28;20022;-81
2022/01/03 09:22:45;;;;;;;21.95;2.53;;;9.10;99.90;;;;;;5036315;28;20033;-81
2022/01/03 09:30:24;;;;;;;23.75;3.38;;;9.10;99.90;;;;;;5042978;28;20548;-81
2022/01/03 09:32:49;;;;;;;21.35;2.67;;;9.10;99.90;;;;;;5042364;28;20099;-82
2022/01/03 09:35:16;;;;;;;19.38;3.88;;;9.10;99.90;;;;;;5042478;28;20039;-82
2022/01/03 09:37:41;;;;;;;22.98;4.00;;;9.20;99.90;;;;;;5049048;28;20021;-82
2022/01/03 09:40:08;;;;;;;23.98;3.03;;;9.20;99.90;;;;;;5049870;28;20384;-82
2022/01/03 09:42:34;;;;;;;24.65;5.40;;;9.20;99.90;;;;;;5049125;28;20025;-82
2022/01/03 09:45:04;;;;;;;20.67;2.85;;;9.20;99.90;;;;;;5048913;28;20028;-81
2022/01/03 09:47:32;;;;;;;22.83;2.30;;;9.20;99.90;;;;;;5050401;28;20029;-81
2022/01/03 09:49:59;;;;;;;22.55;3.13;;;9.40;99.90;;;;;;5048841;28;20021;-83
2022/01/03 09:52:26;;;;;;;17.63;3.03;;;9.40;91.20;;;;;;5049127;28;20044;-83
2022/01/03 09:54:54;;;;;;;18.55;3.10;;;9.30;1.00;;;;;;5050182;28;20403;-83
2022/01/03 09:57:21;;;;;;;25.00;3.17;;;9.30;1.00;;;;;;5049123;28;20121;-83
2022/01/03 09:59:47;;;;;;;27.60;3.75;;;9.40;1.00;;;;;;5050279;28;20107;-83
2022/01/03 10:02:15;;;;;;;20.27;2.85;;;9.40;1.00;;;;;;5050166;28;20064;-83
2022/01/03 10:04:41;;;;;;;16.67;2.60;;;9.40;1.00;;;;;;5050166;28;20045;-83
2022/01/03 10:07:11;;;;;;;19.13;2.40;;;9.50;1.00;;;;;;5050792;28;20036;-83
2022/01/03 10:09:38;;;;;;;29.65;3.55;;;9.60;1.00;;;;;;5050375;28;20515;-82
2022/01/03 10:12:05;;;;;;;21.85;2.80;;;9.60;99.90;;;;;;5048922;28;20029;-83
2022/01/03 10:14:30;;;;;;;18.73;3.63;;;9.70;1.00;;;;;;5048621;28;20072;-83
2022/01/03 10:16:56;;;;;;;26.23;3.00;;;9.60;1.00;;;;;;5050140;28;20437;-83
2022/01/03 10:19:22;;;;;;;23.05;3.03;;;9.70;99.90;;;;;;5049794;28;20108;-83
2022/01/03 10:21:50;;;;;;;26.73;3.55;;;9.60;99.90;;;;;;5051848;28;20014;-83
2022/01/03 10:24:19;;;;;;;15.98;2.20;;;9.60;99.90;;;;;;5053971;28;20017;-82
2022/01/03 10:26:55;;;;;;;25.50;3.22;;;9.60;99.90;;;;;;5052448;28;20037;-82
2022/01/03 10:29:28;;;;;;;25.08;3.75;;;9.60;99.90;;;;;;5052322;28;20389;-83
2022/01/03 10:31:55;;;;;;;22.60;2.92;;;9.60;99.90;;;;;;5051950;28;20135;-83
2022/01/03 10:34:25;;;;;;;26.55;3.50;;;9.70;99.90;;;;;;5052090;28;20412;-82
2022/01/03 10:36:54;;;;;;;25.88;3.03;;;9.60;99.90;;;;;;5053598;28;20048;-82
2022/01/03 10:39:26;;;;;;;26.80;2.42;;;9.70;99.90;;;;;;5052027;28;20025;-83
2022/01/03 10:42:14;;;;;;;21.45;2.90;;;9.70;99.90;;;;;;5053376;28;20025;-83
2022/01/03 10:44:43;;;;;;;23.15;2.67;;;9.70;99.90;;;;;;5052208;28;20029;-83
2022/01/03 10:47:10;;;;;;;18.83;2.63;;;9.70;99.90;;;;;;5051829;28;20104;-83
2022/01/03 10:49:38;;;;;;;19.92;2.85;;;9.70;99.90;;;;;;5053614;28;20025;-83
2022/01/03 10:52:39;;;;;;;14.18;2.75;;;9.70;99.90;;;;;;5053315;28;20151;-83
2022/01/03 10:55:13;;;;;;;15.63;2.35;;;9.70;99.90;;;;;;5051618;28;20082;-83
2022/01/03 10:57:58;;;;;;;21.33;3.35;;;9.70;99.90;;;;;;5052160;28;20021;-82
2022/01/03 11:00:26;;;;;;;20.75;3.15;;;9.70;99.90;;;;;;5051702;28;20433;-82
2022/01/03 11:05:50;;;;;;;22.17;2.83;;;9.60;99.90;;;;;;5043243;28;20132;-82
2022/01/03 11:11:00;;;;;;;20.77;3.42;;;9.70;99.90;;;;;;5040094;28;20075;-82
2022/01/03 11:13:26;;;;;;;21.30;2.72;;;9.60;99.90;;;;;;5036963;28;20057;-82
2022/01/03 11:16:02;;;;;;;23.08;2.58;;;9.70;99.90;;;;;;5034705;28;20337;-83
2022/01/03 11:18:42;;;;;;;20.30;2.75;;;9.70;99.90;;;;;;5043142;28;20025;-82
2022/01/03 11:21:23;;;;;;;;;;;9.60;99.90;;;;;;5040158;28;20033;-82
2022/01/03 11:24:01;;;;;;;20.27;3.10;;;9.70;99.90;;;;;;5038930;28;19909;-82
2022/01/03 11:26:30;;;;;;;20.27;3.03;;;9.70;99.90;;;;;;5035547;28;20034;-82
2022/01/03 11:28:56;;;;;;;22.05;3.95;;;9.70;99.90;;;;;;5036698;28;20116;-82
2022/01/03 11:31:22;;;;;;;17.02;2.50;;;9.70;99.90;;;;;;5036799;28;20034;-82
2022/01/03 11:33:51;;;;;;;19.05;2.72;;;9.70;99.90;;;;;;5037644;28;20067;-82
2022/01/03 11:36:20;;;;;;;25.35;2.83;;;9.80;99.90;;;;;;5048095;28;20033;-82
2022/01/03 11:38:46;;;;;;;20.17;2.78;;;10.00;99.90;;;;;;5053685;28;20029;-82
2022/01/03 11:41:12;;;;;;;21.95;2.65;;;10.30;99.90;;;;;;5047207;28;20033;-82
2022/01/03 11:43:41;;;;;;;19.02;2.85;;;10.40;99.90;;;;;;5042890;28;20022;-82
2022/01/03 11:46:07;;;;;;;23.83;2.55;;;10.40;99.90;;;;;;5052100;28;20033;-82
2022/01/03 11:48:33;;;;;;;17.17;2.67;;;10.40;99.90;;;;;;5052260;28;20155;-82
2022/01/03 11:51:06;;;;;;;25.45;3.20;;;10.50;99.90;;;;;;5050593;28;20032;-81
2022/01/03 11:53:34;;;;;;;32.92;5.20;;;10.40;99.90;;;;;;5051008;28;20110;-81
2022/01/03 11:56:06;;;;;;;23.52;2.65;;;10.30;99.90;;;;;;5052308;28;20520;-83
2022/01/03 12:04:39;;;;;;;14.48;2.25;;;10.10;99.90;;;;;;5045695;28;20478;-82
2022/01/03 12:07:11;;;;;;;18.23;2.58;;;10.10;99.90;;;;;;5051863;28;20031;-81
2022/01/03 12:09:38;;;;;;;20.00;3.55;;;10.10;99.90;;;;;;5052083;28;20063;-82
2022/01/03 12:12:06;;;;;;;19.83;3.17;;;10.10;99.90;;;;;;5051516;28;20124;-82
2022/01/03 12:14:40;;;;;;;18.48;2.55;;;10.20;99.90;;;;;;5051742;28;20021;-82
2022/01/03 12:17:08;;;;;;;20.42;2.90;;;10.30;99.90;;;;;;5050057;28;20037;-82
2022/01/03 12:19:46;;;;;;;18.85;3.17;;;10.20;99.90;;;;;;5050573;28;20021;-81
2022/01/03 12:22:19;;;;;;;19.65;2.55;;;10.30;99.90;;;;;;5050408;28;20079;-80
2022/01/03 12:25:02;;;;;;;16.65;2.08;;;10.20;99.90;;;;;;5054274;28;20074;-81
2022/01/03 12:27:30;;;;;;;15.75;2.25;;;10.20;99.90;;;;;;5052952;28;20036;-81
2022/01/03 12:29:56;;;;;;;14.88;2.42;;;10.20;99.90;;;;;;5054374;28;20025;-81
2022/01/03 12:32:30;;;;;;;23.30;3.35;;;10.20;99.90;;;;;;5054727;28;20032;-81
2022/01/03 12:35:37;;;;;;;18.27;2.20;;;10.20;99.90;;;;;;5037214;28;20029;-80
2022/01/03 12:38:03;;;;;;;20.20;2.38;;;10.20;99.90;;;;;;5035829;28;20021;-80
2022/01/03 12:40:58;;;;;;;20.67;3.25;;;10.10;99.90;;;;;;5034997;28;20088;-80
2022/01/03 12:43:45;;;;;;;20.88;2.88;;;10.00;99.90;;;;;;5042144;28;20044;-81
2022/01/03 12:46:20;;;;;;;22.77;3.35;;;10.00;99.90;;;;;;5049620;28;20079;-81
2022/01/03 12:48:45;;;;;;;18.85;3.15;;;10.00;99.90;;;;;;5042972;28;20366;-80
2022/01/03 12:51:14;;;;;;;16.73;2.20;;;10.00;99.90;;;;;;5044545;28;20017;-80
2022/01/03 12:53:47;;;;;;;27.30;3.97;;;9.90;99.90;;;;;;5041580;28;20033;-81
2022/01/03 12:56:15;;;;;;;25.30;3.17;;;10.00;99.90;;;;;;5040309;28;20051;-80
2022/01/03 12:58:42;;;;;;;18.13;2.15;;;10.00;99.90;;;;;;5041340;28;20047;-81
2022/01/03 13:01:11;;;;;;;24.15;2.85;;;10.00;99.90;;;;;;5043902;28;20984;-80
2022/01/03 13:03:47;;;;;;;25.23;3.97;;;10.00;99.90;;;;;;5041813;28;20028;-80
2022/01/03 13:06:25;;;;;;;16.40;2.42;;;10.00;99.90;;;;;;5039654;28;20072;-80
2022/01/03 13:08:56;;;;;;;17.65;2.33;;;10.00;99.90;;;;;;5047543;28;20033;-80
2022/01/03 13:11:27;;;;;;;24.58;3.08;;;10.00;99.90;;;;;;5047014;28;20025;-81
2022/01/03 13:13:59;;;;;;;19.42;3.13;;;9.90;99.90;;;;;;5047641;28;20493;-80
2022/01/03 13:16:31;;;;;;;19.23;2.28;;;9.80;99.90;;;;;;5073776;28;20117;-81
2022/01/03 13:19:01;;;;;;;22.50;3.15;;;9.90;99.90;;;;;;5054220;28;20513;-81